sensor_id;sensor_type;location;lat;lon;timestamp;P1;durP1;ratioP1;P2;durP2;ratioP2
52186;SDS011;38161;53.020;6.598;2023-05-10T00:01:24;40.40;;;37.80;;
52186;SDS011;38161;53.020;6.598;2023-05-10T00:03:50;44.20;;;41.60;;
52186;SDS011;38161;53.020;6.598;2023-05-10T00:06:16;40.05;;;37.50;;
52186;SDS011;38161;53.020;6.598;2023-05-10T00:08:42;40.15;;;37.53;;
52186;SDS011;38161;53.020;6.598;2023-05-10T00:11:08;42.70;;;40.13;;
52186;SDS011;38161;53.020;6.598;2023-05-10T00:13:34;46.78;;;43.92;;
52186;SDS011;38161;53.020;6.598;2023-05-10T00:16:00;46.22;;;43.40;;
52186;SDS011;38161;53.020;6.598;2023-05-10T00:18:25;40.58;;;38.13;;
52186;SDS011;38161;53.020;6.598;2023-05-10T00:20:51;45.17;;;42.28;;
52186;SDS011;38161;53.020;6.598;2023-05-10T00:23:17;44.60;;;41.85;;
52186;SDS011;38161;53.020;6.598;2023-05-10T00:25:43;45.33;;;42.45;;
52186;SDS011;38161;53.020;6.598;2023-05-10T00:28:08;42.37;;;39.83;;
52186;SDS011;38161;53.020;6.598;2023-05-10T00:30:34;44.10;;;41.55;;
52186;SDS011;38161;53.020;6.598;2023-05-10T00:33:00;46.28;;;43.42;;
52186;SDS011;38161;53.020;6.598;2023-05-10T00:35:26;41.08;;;38.42;;
52186;SDS011;38161;53.020;6.598;2023-05-10T00:37:51;38.88;;;36.65;;
52186;SDS011;38161;53.020;6.598;2023-05-10T00:40:17;44.63;;;42.08;;
52186;SDS011;38161;53.020;6.598;2023-05-10T00:42:43;40.00;;;37.55;;
52186;SDS011;38161;53.020;6.598;2023-05-10T00:45:09;52.15;;;48.95;;
52186;SDS011;38161;53.020;6.598;2023-05-10T00:47:34;41.78;;;39.33;;
52186;SDS011;38161;53.020;6.598;2023-05-10T00:50:01;42.42;;;39.85;;
52186;SDS011;38161;53.020;6.598;2023-05-10T00:54:53;36.45;;;34.05;;
52186;SDS011;38161;53.020;6.598;2023-05-10T00:57:20;33.85;;;31.67;;
52186;SDS011;38161;53.020;6.598;2023-05-10T01:02:12;31.67;;;29.75;;
52186;SDS011;38161;53.020;6.598;2023-05-10T01:04:38;37.13;;;34.40;;
52186;SDS011;38161;53.020;6.598;2023-05-10T01:07:04;37.75;;;35.55;;
52186;SDS011;38161;53.020;6.598;2023-05-10T01:09:30;40.60;;;38.20;;
52186;SDS011;38161;53.020;6.598;2023-05-10T01:11:56;43.15;;;40.63;;
52186;SDS011;38161;53.020;6.598;2023-05-10T01:14:22;63.72;;;58.25;;
52186;SDS011;38161;53.020;6.598;2023-05-10T01:16:49;47.15;;;44.42;;
52186;SDS011;38161;53.020;6.598;2023-05-10T01:19:19;38.55;;;36.20;;
52186;SDS011;38161;53.020;6.598;2023-05-10T01:25:00;40.22;;;37.88;;
52186;SDS011;38161;53.020;6.598;2023-05-10T01:28:07;33.92;;;31.75;;
52186;SDS011;38161;53.020;6.598;2023-05-10T01:33:46;38.85;;;36.40;;
52186;SDS011;38161;53.020;6.598;2023-05-10T01:39:17;37.35;;;34.95;;
52186;SDS011;38161;53.020;6.598;2023-05-10T01:42:11;33.53;;;31.33;;
52186;SDS011;38161;53.020;6.598;2023-05-10T01:44:45;35.65;;;33.38;;
52186;SDS011;38161;53.020;6.598;2023-05-10T01:47:20;39.72;;;37.15;;
52186;SDS011;38161;53.020;6.598;2023-05-10T01:49:57;34.85;;;32.42;;
52186;SDS011;38161;53.020;6.598;2023-05-10T01:52:30;41.30;;;38.58;;
52186;SDS011;38161;53.020;6.598;2023-05-10T01:55:06;37.60;;;35.17;;
52186;SDS011;38161;53.020;6.598;2023-05-10T01:57:34;40.13;;;37.33;;
52186;SDS011;38161;53.020;6.598;2023-05-10T02:00:04;41.17;;;38.50;;
52186;SDS011;38161;53.020;6.598;2023-05-10T02:02:33;41.88;;;39.08;;
52186;SDS011;38161;53.020;6.598;2023-05-10T02:05:03;40.63;;;37.95;;
52186;SDS011;38161;53.020;6.598;2023-05-10T02:07:31;50.33;;;46.97;;
52186;SDS011;38161;53.020;6.598;2023-05-10T02:09:59;42.80;;;39.95;;
52186;SDS011;38161;53.020;6.598;2023-05-10T02:12:25;40.88;;;38.22;;
52186;SDS011;38161;53.020;6.598;2023-05-10T02:14:53;39.85;;;37.10;;
52186;SDS011;38161;53.020;6.598;2023-05-10T02:17:20;43.25;;;40.50;;
52186;SDS011;38161;53.020;6.598;2023-05-10T02:19:46;42.95;;;39.97;;
52186;SDS011;38161;53.020;6.598;2023-05-10T02:22:13;38.42;;;35.88;;
52186;SDS011;38161;53.020;6.598;2023-05-10T02:24:40;46.25;;;43.08;;
52186;SDS011;38161;53.020;6.598;2023-05-10T02:29:33;29.65;;;27.48;;
52186;SDS011;38161;53.020;6.598;2023-05-10T02:32:00;35.50;;;33.10;;
52186;SDS011;38161;53.020;6.598;2023-05-10T02:34:27;44.72;;;41.72;;
52186;SDS011;38161;53.020;6.598;2023-05-10T02:36:53;40.08;;;37.22;;
52186;SDS011;38161;53.020;6.598;2023-05-10T02:39:21;41.92;;;38.97;;
52186;SDS011;38161;53.020;6.598;2023-05-10T02:41:48;39.05;;;36.42;;
52186;SDS011;38161;53.020;6.598;2023-05-10T02:44:15;47.60;;;44.45;;
52186;SDS011;38161;53.020;6.598;2023-05-10T02:46:44;37.28;;;34.55;;
52186;SDS011;38161;53.020;6.598;2023-05-10T02:49:10;39.25;;;36.63;;
52186;SDS011;38161;53.020;6.598;2023-05-10T02:51:37;39.58;;;37.03;;
52186;SDS011;38161;53.020;6.598;2023-05-10T02:54:08;42.92;;;40.13;;
52186;SDS011;38161;53.020;6.598;2023-05-10T02:56:42;36.75;;;33.95;;
52186;SDS011;38161;53.020;6.598;2023-05-10T02:59:12;40.10;;;37.17;;
52186;SDS011;38161;53.020;6.598;2023-05-10T03:01:38;43.63;;;40.47;;
52186;SDS011;38161;53.020;6.598;2023-05-10T03:04:04;43.75;;;40.78;;
52186;SDS011;38161;53.020;6.598;2023-05-10T03:06:30;41.42;;;38.42;;
52186;SDS011;38161;53.020;6.598;2023-05-10T03:08:56;42.78;;;39.70;;
52186;SDS011;38161;53.020;6.598;2023-05-10T03:14:48;38.28;;;35.55;;
52186;SDS011;38161;53.020;6.598;2023-05-10T03:17:55;38.67;;;35.95;;
52186;SDS011;38161;53.020;6.598;2023-05-10T03:20:31;37.75;;;34.83;;
52186;SDS011;38161;53.020;6.598;2023-05-10T03:23:12;40.70;;;37.60;;
52186;SDS011;38161;53.020;6.598;2023-05-10T03:25:42;41.88;;;38.75;;
52186;SDS011;38161;53.020;6.598;2023-05-10T03:28:08;46.08;;;42.55;;
52186;SDS011;38161;53.020;6.598;2023-05-10T03:30:35;43.90;;;40.65;;
52186;SDS011;38161;53.020;6.598;2023-05-10T03:33:05;44.85;;;41.58;;
52186;SDS011;38161;53.020;6.598;2023-05-10T03:35:34;42.50;;;39.35;;
52186;SDS011;38161;53.020;6.598;2023-05-10T03:38:00;45.25;;;42.05;;
52186;SDS011;38161;53.020;6.598;2023-05-10T03:40:26;50.13;;;46.83;;
52186;SDS011;38161;53.020;6.598;2023-05-10T03:42:54;45.95;;;42.78;;
52186;SDS011;38161;53.020;6.598;2023-05-10T03:45:20;47.42;;;44.33;;
52186;SDS011;38161;53.020;6.598;2023-05-10T03:47:46;47.10;;;43.90;;
52186;SDS011;38161;53.020;6.598;2023-05-10T03:50:12;47.37;;;44.10;;
52186;SDS011;38161;53.020;6.598;2023-05-10T03:52:37;41.75;;;38.90;;
52186;SDS011;38161;53.020;6.598;2023-05-10T03:55:06;51.38;;;47.88;;
52186;SDS011;38161;53.020;6.598;2023-05-10T03:57:32;44.60;;;41.60;;
52186;SDS011;38161;53.020;6.598;2023-05-10T03:59:59;43.33;;;40.47;;
52186;SDS011;38161;53.020;6.598;2023-05-10T04:02:25;55.95;;;51.03;;
52186;SDS011;38161;53.020;6.598;2023-05-10T04:04:50;41.83;;;39.17;;
52186;SDS011;38161;53.020;6.598;2023-05-10T04:07:16;40.45;;;37.83;;
52186;SDS011;38161;53.020;6.598;2023-05-10T04:09:43;43.50;;;40.15;;
52186;SDS011;38161;53.020;6.598;2023-05-10T04:12:09;41.08;;;38.38;;
52186;SDS011;38161;53.020;6.598;2023-05-10T04:14:34;42.75;;;39.88;;
52186;SDS011;38161;53.020;6.598;2023-05-10T04:17:00;78.82;;;67.95;;
52186;SDS011;38161;53.020;6.598;2023-05-10T04:19:32;36.78;;;34.25;;
52186;SDS011;38161;53.020;6.598;2023-05-10T04:21:58;37.80;;;35.33;;
52186;SDS011;38161;53.020;6.598;2023-05-10T04:24:24;39.50;;;36.95;;
52186;SDS011;38161;53.020;6.598;2023-05-10T04:26:50;44.72;;;41.97;;
52186;SDS011;38161;53.020;6.598;2023-05-10T04:29:16;38.05;;;35.63;;
52186;SDS011;38161;53.020;6.598;2023-05-10T04:31:44;41.88;;;39.17;;
52186;SDS011;38161;53.020;6.598;2023-05-10T04:34:10;62.88;;;56.60;;
52186;SDS011;38161;53.020;6.598;2023-05-10T04:36:35;43.70;;;41.05;;
52186;SDS011;38161;53.020;6.598;2023-05-10T04:39:02;43.70;;;40.92;;
52186;SDS011;38161;53.020;6.598;2023-05-10T04:41:28;38.53;;;36.17;;
52186;SDS011;38161;53.020;6.598;2023-05-10T04:43:55;40.70;;;38.20;;
52186;SDS011;38161;53.020;6.598;2023-05-10T04:46:20;43.72;;;41.05;;
52186;SDS011;38161;53.020;6.598;2023-05-10T04:48:46;35.80;;;33.53;;
52186;SDS011;38161;53.020;6.598;2023-05-10T04:51:12;42.15;;;39.60;;
52186;SDS011;38161;53.020;6.598;2023-05-10T04:53:38;40.22;;;37.75;;
52186;SDS011;38161;53.020;6.598;2023-05-10T04:56:04;41.15;;;38.72;;
52186;SDS011;38161;53.020;6.598;2023-05-10T04:58:30;36.90;;;34.72;;
52186;SDS011;38161;53.020;6.598;2023-05-10T05:00:56;39.47;;;37.10;;
52186;SDS011;38161;53.020;6.598;2023-05-10T05:03:21;44.15;;;41.42;;
52186;SDS011;38161;53.020;6.598;2023-05-10T05:05:47;37.97;;;35.67;;
52186;SDS011;38161;53.020;6.598;2023-05-10T05:08:13;40.05;;;37.45;;
52186;SDS011;38161;53.020;6.598;2023-05-10T05:10:39;38.70;;;36.00;;
52186;SDS011;38161;53.020;6.598;2023-05-10T05:13:05;35.97;;;33.85;;
52186;SDS011;38161;53.020;6.598;2023-05-10T05:15:31;33.25;;;31.23;;
52186;SDS011;38161;53.020;6.598;2023-05-10T05:17:59;37.08;;;34.67;;
52186;SDS011;38161;53.020;6.598;2023-05-10T05:20:25;37.10;;;34.80;;
52186;SDS011;38161;53.020;6.598;2023-05-10T05:22:50;38.63;;;36.47;;
52186;SDS011;38161;53.020;6.598;2023-05-10T05:25:16;41.87;;;39.37;;
52186;SDS011;38161;53.020;6.598;2023-05-10T05:27:42;41.30;;;38.92;;
52186;SDS011;38161;53.020;6.598;2023-05-10T05:30:08;38.80;;;36.67;;
52186;SDS011;38161;53.020;6.598;2023-05-10T05:32:34;35.30;;;33.20;;
52186;SDS011;38161;53.020;6.598;2023-05-10T05:35:00;42.30;;;40.03;;
52186;SDS011;38161;53.020;6.598;2023-05-10T05:37:25;50.33;;;47.10;;
52186;SDS011;38161;53.020;6.598;2023-05-10T05:39:51;39.25;;;36.90;;
52186;SDS011;38161;53.020;6.598;2023-05-10T05:42:20;35.63;;;33.65;;
52186;SDS011;38161;53.020;6.598;2023-05-10T05:44:46;36.35;;;34.25;;
52186;SDS011;38161;53.020;6.598;2023-05-10T05:47:12;36.85;;;34.85;;
52186;SDS011;38161;53.020;6.598;2023-05-10T05:49:38;38.47;;;36.30;;
52186;SDS011;38161;53.020;6.598;2023-05-10T05:52:04;35.63;;;33.63;;
52186;SDS011;38161;53.020;6.598;2023-05-10T05:54:30;68.32;;;53.22;;
52186;SDS011;38161;53.020;6.598;2023-05-10T05:56:57;39.78;;;37.60;;
52186;SDS011;38161;53.020;6.598;2023-05-10T05:59:23;32.95;;;31.15;;
52186;SDS011;38161;53.020;6.598;2023-05-10T06:01:49;35.55;;;33.50;;
52186;SDS011;38161;53.020;6.598;2023-05-10T06:04:15;38.88;;;36.85;;
52186;SDS011;38161;53.020;6.598;2023-05-10T06:06:42;34.25;;;32.47;;
52186;SDS011;38161;53.020;6.598;2023-05-10T06:09:08;39.75;;;37.35;;
52186;SDS011;38161;53.020;6.598;2023-05-10T06:11:34;37.13;;;35.15;;
52186;SDS011;38161;53.020;6.598;2023-05-10T06:14:00;34.28;;;32.45;;
52186;SDS011;38161;53.020;6.598;2023-05-10T06:16:27;35.83;;;33.88;;
52186;SDS011;38161;53.020;6.598;2023-05-10T06:18:53;33.78;;;32.03;;
52186;SDS011;38161;53.020;6.598;2023-05-10T06:21:19;34.97;;;33.13;;
52186;SDS011;38161;53.020;6.598;2023-05-10T06:23:45;38.08;;;36.00;;
52186;SDS011;38161;53.020;6.598;2023-05-10T06:26:10;36.22;;;34.22;;
52186;SDS011;38161;53.020;6.598;2023-05-10T06:28:36;34.17;;;32.40;;
52186;SDS011;38161;53.020;6.598;2023-05-10T06:31:05;35.15;;;33.15;;
52186;SDS011;38161;53.020;6.598;2023-05-10T06:33:32;36.42;;;34.60;;
52186;SDS011;38161;53.020;6.598;2023-05-10T06:35:58;32.92;;;31.23;;
52186;SDS011;38161;53.020;6.598;2023-05-10T06:38:23;35.28;;;33.47;;
52186;SDS011;38161;53.020;6.598;2023-05-10T06:40:49;35.35;;;33.42;;
52186;SDS011;38161;53.020;6.598;2023-05-10T06:43:15;34.72;;;32.92;;
52186;SDS011;38161;53.020;6.598;2023-05-10T06:45:41;33.08;;;31.48;;
52186;SDS011;38161;53.020;6.598;2023-05-10T06:48:07;34.30;;;32.65;;
52186;SDS011;38161;53.020;6.598;2023-05-10T06:50:33;35.72;;;33.92;;
52186;SDS011;38161;53.020;6.598;2023-05-10T06:52:59;36.05;;;34.33;;
52186;SDS011;38161;53.020;6.598;2023-05-10T06:55:26;31.02;;;29.48;;
52186;SDS011;38161;53.020;6.598;2023-05-10T06:57:52;35.13;;;33.33;;
52186;SDS011;38161;53.020;6.598;2023-05-10T07:00:19;34.53;;;32.88;;
52186;SDS011;38161;53.020;6.598;2023-05-10T07:02:45;35.75;;;33.97;;
52186;SDS011;38161;53.020;6.598;2023-05-10T07:05:11;32.05;;;30.50;;
52186;SDS011;38161;53.020;6.598;2023-05-10T07:07:37;32.92;;;31.25;;
52186;SDS011;38161;53.020;6.598;2023-05-10T07:10:03;33.83;;;32.17;;
52186;SDS011;38161;53.020;6.598;2023-05-10T07:12:29;32.28;;;30.75;;
52186;SDS011;38161;53.020;6.598;2023-05-10T07:14:55;40.75;;;38.63;;
52186;SDS011;38161;53.020;6.598;2023-05-10T07:17:21;35.90;;;34.13;;
52186;SDS011;38161;53.020;6.598;2023-05-10T07:19:47;35.30;;;33.63;;
52186;SDS011;38161;53.020;6.598;2023-05-10T07:22:13;34.17;;;32.45;;
52186;SDS011;38161;53.020;6.598;2023-05-10T07:24:40;37.13;;;35.28;;
52186;SDS011;38161;53.020;6.598;2023-05-10T07:27:06;38.58;;;36.70;;
52186;SDS011;38161;53.020;6.598;2023-05-10T07:29:32;34.80;;;33.17;;
52186;SDS011;38161;53.020;6.598;2023-05-10T07:31:58;35.83;;;34.13;;
52186;SDS011;38161;53.020;6.598;2023-05-10T07:34:24;34.78;;;32.92;;
52186;SDS011;38161;53.020;6.598;2023-05-10T07:36:51;38.15;;;36.35;;
52186;SDS011;38161;53.020;6.598;2023-05-10T07:39:16;36.15;;;34.38;;
52186;SDS011;38161;53.020;6.598;2023-05-10T07:41:42;39.70;;;37.47;;
52186;SDS011;38161;53.020;6.598;2023-05-10T07:44:08;42.72;;;40.63;;
52186;SDS011;38161;53.020;6.598;2023-05-10T07:46:34;37.13;;;35.33;;
52186;SDS011;38161;53.020;6.598;2023-05-10T07:49:00;33.97;;;32.20;;
52186;SDS011;38161;53.020;6.598;2023-05-10T07:51:29;38.42;;;36.58;;
52186;SDS011;38161;53.020;6.598;2023-05-10T07:53:55;37.83;;;35.95;;
52186;SDS011;38161;53.020;6.598;2023-05-10T07:56:24;38.22;;;36.35;;
52186;SDS011;38161;53.020;6.598;2023-05-10T07:59:00;41.13;;;39.10;;
52186;SDS011;38161;53.020;6.598;2023-05-10T08:01:32;38.47;;;36.50;;
52186;SDS011;38161;53.020;6.598;2023-05-10T08:03:59;36.15;;;34.28;;
52186;SDS011;38161;53.020;6.598;2023-05-10T08:06:25;42.80;;;40.65;;
52186;SDS011;38161;53.020;6.598;2023-05-10T08:08:53;44.15;;;41.88;;
52186;SDS011;38161;53.020;6.598;2023-05-10T08:11:22;43.17;;;40.88;;
52186;SDS011;38161;53.020;6.598;2023-05-10T08:13:49;35.92;;;34.10;;
52186;SDS011;38161;53.020;6.598;2023-05-10T08:16:15;38.05;;;36.13;;
52186;SDS011;38161;53.020;6.598;2023-05-10T08:21:08;29.27;;;27.77;;
52186;SDS011;38161;53.020;6.598;2023-05-10T08:23:35;37.85;;;35.95;;
52186;SDS011;38161;53.020;6.598;2023-05-10T08:26:02;33.10;;;31.35;;
52186;SDS011;38161;53.020;6.598;2023-05-10T08:28:28;39.58;;;37.60;;
52186;SDS011;38161;53.020;6.598;2023-05-10T08:30:53;40.50;;;38.42;;
52186;SDS011;38161;53.020;6.598;2023-05-10T08:33:19;41.53;;;39.15;;
52186;SDS011;38161;53.020;6.598;2023-05-10T08:35:45;41.15;;;39.03;;
52186;SDS011;38161;53.020;6.598;2023-05-10T08:38:11;36.97;;;35.00;;
52186;SDS011;38161;53.020;6.598;2023-05-10T08:40:38;36.88;;;34.55;;
52186;SDS011;38161;53.020;6.598;2023-05-10T08:43:09;39.78;;;37.65;;
52186;SDS011;38161;53.020;6.598;2023-05-10T08:45:37;36.25;;;34.38;;
52186;SDS011;38161;53.020;6.598;2023-05-10T08:48:05;42.38;;;40.20;;
52186;SDS011;38161;53.020;6.598;2023-05-10T08:50:33;56.88;;;53.47;;
52186;SDS011;38161;53.020;6.598;2023-05-10T08:53:02;40.55;;;38.35;;
52186;SDS011;38161;53.020;6.598;2023-05-10T08:55:31;48.85;;;45.47;;
52186;SDS011;38161;53.020;6.598;2023-05-10T08:57:59;39.50;;;37.38;;
52186;SDS011;38161;53.020;6.598;2023-05-10T09:00:26;45.15;;;42.80;;
52186;SDS011;38161;53.020;6.598;2023-05-10T09:02:52;46.33;;;43.85;;
52186;SDS011;38161;53.020;6.598;2023-05-10T09:05:19;42.17;;;39.75;;
52186;SDS011;38161;53.020;6.598;2023-05-10T09:07:45;45.40;;;42.83;;
52186;SDS011;38161;53.020;6.598;2023-05-10T09:10:11;44.47;;;42.05;;
52186;SDS011;38161;53.020;6.598;2023-05-10T09:12:38;47.53;;;45.03;;
52186;SDS011;38161;53.020;6.598;2023-05-10T09:15:05;48.78;;;46.05;;
52186;SDS011;38161;53.020;6.598;2023-05-10T09:17:32;47.28;;;44.83;;
52186;SDS011;38161;53.020;6.598;2023-05-10T09:19:59;43.40;;;41.13;;
52186;SDS011;38161;53.020;6.598;2023-05-10T09:22:25;40.83;;;38.72;;
52186;SDS011;38161;53.020;6.598;2023-05-10T09:25:07;50.63;;;47.97;;
52186;SDS011;38161;53.020;6.598;2023-05-10T09:27:40;47.53;;;45.05;;
52186;SDS011;38161;53.020;6.598;2023-05-10T09:30:10;46.30;;;43.92;;
52186;SDS011;38161;53.020;6.598;2023-05-10T09:32:41;47.72;;;44.92;;
52186;SDS011;38161;53.020;6.598;2023-05-10T09:35:15;53.17;;;50.42;;
52186;SDS011;38161;53.020;6.598;2023-05-10T09:37:43;58.55;;;55.13;;
52186;SDS011;38161;53.020;6.598;2023-05-10T09:40:16;52.65;;;49.75;;
52186;SDS011;38161;53.020;6.598;2023-05-10T09:45:23;49.83;;;46.83;;
52186;SDS011;38161;53.020;6.598;2023-05-10T09:47:53;53.25;;;50.38;;
52186;SDS011;38161;53.020;6.598;2023-05-10T09:50:19;58.53;;;55.40;;
52186;SDS011;38161;53.020;6.598;2023-05-10T09:55:44;38.67;;;36.58;;
52186;SDS011;38161;53.020;6.598;2023-05-10T09:58:12;44.22;;;41.78;;
52186;SDS011;38161;53.020;6.598;2023-05-10T10:00:42;45.17;;;42.60;;
52186;SDS011;38161;53.020;6.598;2023-05-10T10:03:13;57.25;;;53.95;;
52186;SDS011;38161;53.020;6.598;2023-05-10T10:05:44;43.95;;;41.35;;
52186;SDS011;38161;53.020;6.598;2023-05-10T10:08:11;45.45;;;42.95;;
52186;SDS011;38161;53.020;6.598;2023-05-10T10:13:05;42.25;;;39.85;;
52186;SDS011;38161;53.020;6.598;2023-05-10T10:17:57;38.55;;;36.33;;
52186;SDS011;38161;53.020;6.598;2023-05-10T10:20:25;46.20;;;43.42;;
52186;SDS011;38161;53.020;6.598;2023-05-10T10:22:52;55.13;;;51.83;;
52186;SDS011;38161;53.020;6.598;2023-05-10T10:25:19;65.50;;;61.17;;
52186;SDS011;38161;53.020;6.598;2023-05-10T10:35:38;58.75;;;55.33;;
52186;SDS011;38161;53.020;6.598;2023-05-10T10:38:05;75.60;;;70.55;;
52186;SDS011;38161;53.020;6.598;2023-05-10T10:40:34;57.38;;;53.40;;
52186;SDS011;38161;53.020;6.598;2023-05-10T10:51:38;57.90;;;54.53;;
52186;SDS011;38161;53.020;6.598;2023-05-10T10:54:11;66.20;;;62.13;;
52186;SDS011;38161;53.020;6.598;2023-05-10T10:56:37;62.20;;;58.08;;
52186;SDS011;38161;53.020;6.598;2023-05-10T10:59:03;58.47;;;54.85;;
52186;SDS011;38161;53.020;6.598;2023-05-10T11:01:34;67.65;;;63.50;;
52186;SDS011;38161;53.020;6.598;2023-05-10T11:06:29;65.28;;;59.53;;
52186;SDS011;38161;53.020;6.598;2023-05-10T11:08:56;81.03;;;75.60;;
52186;SDS011;38161;53.020;6.598;2023-05-10T11:11:22;77.95;;;73.28;;
52186;SDS011;38161;53.020;6.598;2023-05-10T11:13:49;80.70;;;75.97;;
52186;SDS011;38161;53.020;6.598;2023-05-10T11:21:19;69.93;;;65.47;;
52186;SDS011;38161;53.020;6.598;2023-05-10T11:23:48;72.20;;;68.07;;
52186;SDS011;38161;53.020;6.598;2023-05-10T11:26:16;69.05;;;64.75;;
52186;SDS011;38161;53.020;6.598;2023-05-10T11:31:09;55.00;;;51.78;;
52186;SDS011;38161;53.020;6.598;2023-05-10T11:33:45;58.72;;;55.40;;
52186;SDS011;38161;53.020;6.598;2023-05-10T11:36:13;58.33;;;54.72;;
52186;SDS011;38161;53.020;6.598;2023-05-10T11:38:40;71.18;;;67.18;;
52186;SDS011;38161;53.020;6.598;2023-05-10T11:41:10;65.70;;;61.85;;
52186;SDS011;38161;53.020;6.598;2023-05-10T11:43:40;69.55;;;65.45;;
52186;SDS011;38161;53.020;6.598;2023-05-10T11:46:06;69.45;;;65.47;;
52186;SDS011;38161;53.020;6.598;2023-05-10T11:48:39;81.32;;;75.50;;
52186;SDS011;38161;53.020;6.598;2023-05-10T11:51:08;71.43;;;66.80;;
52186;SDS011;38161;53.020;6.598;2023-05-10T11:53:36;73.45;;;68.95;;
52186;SDS011;38161;53.020;6.598;2023-05-10T11:56:08;67.85;;;64.00;;
52186;SDS011;38161;53.020;6.598;2023-05-10T11:58:36;73.00;;;68.18;;
52186;SDS011;38161;53.020;6.598;2023-05-10T12:01:03;69.05;;;65.07;;
52186;SDS011;38161;53.020;6.598;2023-05-10T12:03:30;69.18;;;65.20;;
52186;SDS011;38161;53.020;6.598;2023-05-10T12:05:56;73.78;;;69.10;;
52186;SDS011;38161;53.020;6.598;2023-05-10T12:08:23;67.43;;;63.50;;
52186;SDS011;38161;53.020;6.598;2023-05-10T12:10:50;71.80;;;67.53;;
52186;SDS011;38161;53.020;6.598;2023-05-10T12:13:17;90.82;;;84.43;;
52186;SDS011;38161;53.020;6.598;2023-05-10T12:15:45;66.00;;;62.10;;
52186;SDS011;38161;53.020;6.598;2023-05-10T12:18:12;75.50;;;71.15;;
52186;SDS011;38161;53.020;6.598;2023-05-10T12:20:39;88.10;;;82.93;;
52186;SDS011;38161;53.020;6.598;2023-05-10T12:23:07;68.53;;;64.28;;
52186;SDS011;38161;53.020;6.598;2023-05-10T12:25:35;73.72;;;69.35;;
52186;SDS011;38161;53.020;6.598;2023-05-10T12:28:05;75.97;;;71.25;;
52186;SDS011;38161;53.020;6.598;2023-05-10T12:30:33;76.75;;;72.00;;
52186;SDS011;38161;53.020;6.598;2023-05-10T12:33:12;71.32;;;66.97;;
52186;SDS011;38161;53.020;6.598;2023-05-10T12:35:49;69.80;;;65.65;;
52186;SDS011;38161;53.020;6.598;2023-05-10T12:38:26;58.35;;;55.00;;
52186;SDS011;38161;53.020;6.598;2023-05-10T12:40:55;64.38;;;60.53;;
52186;SDS011;38161;53.020;6.598;2023-05-10T12:43:28;72.00;;;67.63;;
52186;SDS011;38161;53.020;6.598;2023-05-10T12:45:55;72.22;;;67.97;;
52186;SDS011;38161;53.020;6.598;2023-05-10T12:50:47;49.42;;;46.47;;
52186;SDS011;38161;53.020;6.598;2023-05-10T12:53:14;63.45;;;59.72;;
52186;SDS011;38161;53.020;6.598;2023-05-10T12:55:43;68.70;;;64.72;;
52186;SDS011;38161;53.020;6.598;2023-05-10T12:58:09;70.90;;;66.25;;
52186;SDS011;38161;53.020;6.598;2023-05-10T13:00:35;69.25;;;65.03;;
52186;SDS011;38161;53.020;6.598;2023-05-10T13:03:03;93.90;;;86.15;;
52186;SDS011;38161;53.020;6.598;2023-05-10T13:05:31;66.38;;;62.38;;
52186;SDS011;38161;53.020;6.598;2023-05-10T13:07:58;71.63;;;67.40;;
52186;SDS011;38161;53.020;6.598;2023-05-10T13:10:23;63.75;;;59.90;;
52186;SDS011;38161;53.020;6.598;2023-05-10T13:15:18;63.80;;;59.97;;
52186;SDS011;38161;53.020;6.598;2023-05-10T13:17:44;78.45;;;72.75;;
52186;SDS011;38161;53.020;6.598;2023-05-10T13:20:10;73.18;;;68.50;;
52186;SDS011;38161;53.020;6.598;2023-05-10T13:22:36;90.18;;;84.25;;
52186;SDS011;38161;53.020;6.598;2023-05-10T13:25:02;115.25;;;107.13;;
52186;SDS011;38161;53.020;6.598;2023-05-10T13:27:28;91.43;;;84.47;;
52186;SDS011;38161;53.020;6.598;2023-05-10T13:29:54;93.15;;;86.90;;
52186;SDS011;38161;53.020;6.598;2023-05-10T13:32:20;239.35;;;131.82;;
52186;SDS011;38161;53.020;6.598;2023-05-10T13:34:46;87.32;;;81.80;;
52186;SDS011;38161;53.020;6.598;2023-05-10T13:37:12;107.43;;;100.10;;
52186;SDS011;38161;53.020;6.598;2023-05-10T13:39:37;79.82;;;75.05;;
52186;SDS011;38161;53.020;6.598;2023-05-10T13:42:03;86.95;;;80.32;;
52186;SDS011;38161;53.020;6.598;2023-05-10T13:44:30;68.82;;;64.60;;
52186;SDS011;38161;53.020;6.598;2023-05-10T13:46:56;81.50;;;75.47;;
52186;SDS011;38161;53.020;6.598;2023-05-10T13:49:22;80.82;;;75.22;;
52186;SDS011;38161;53.020;6.598;2023-05-10T13:51:47;88.45;;;81.75;;
52186;SDS011;38161;53.020;6.598;2023-05-10T13:54:13;78.03;;;73.05;;
52186;SDS011;38161;53.020;6.598;2023-05-10T13:56:40;109.78;;;101.93;;
52186;SDS011;38161;53.020;6.598;2023-05-10T13:59:07;68.88;;;64.88;;
52186;SDS011;38161;53.020;6.598;2023-05-10T14:01:33;73.38;;;69.07;;
52186;SDS011;38161;53.020;6.598;2023-05-10T14:03:59;66.18;;;62.10;;
52186;SDS011;38161;53.020;6.598;2023-05-10T14:06:25;80.53;;;75.63;;
52186;SDS011;38161;53.020;6.598;2023-05-10T14:08:52;75.30;;;70.50;;
52186;SDS011;38161;53.020;6.598;2023-05-10T14:11:19;87.57;;;81.93;;
52186;SDS011;38161;53.020;6.598;2023-05-10T14:13:45;87.95;;;82.63;;
52186;SDS011;38161;53.020;6.598;2023-05-10T14:16:10;72.57;;;68.25;;
52186;SDS011;38161;53.020;6.598;2023-05-10T14:18:37;82.38;;;76.88;;
52186;SDS011;38161;53.020;6.598;2023-05-10T14:21:03;79.72;;;75.00;;
52186;SDS011;38161;53.020;6.598;2023-05-10T14:23:29;80.03;;;75.18;;
52186;SDS011;38161;53.020;6.598;2023-05-10T14:25:55;68.05;;;64.13;;
52186;SDS011;38161;53.020;6.598;2023-05-10T14:28:21;83.22;;;77.60;;
52186;SDS011;38161;53.020;6.598;2023-05-10T14:30:48;86.00;;;80.72;;
52186;SDS011;38161;53.020;6.598;2023-05-10T14:33:16;77.65;;;73.03;;
52186;SDS011;38161;53.020;6.598;2023-05-10T14:35:42;87.95;;;81.25;;
52186;SDS011;38161;53.020;6.598;2023-05-10T14:38:08;68.35;;;64.22;;
52186;SDS011;38161;53.020;6.598;2023-05-10T14:40:34;79.63;;;73.65;;
52186;SDS011;38161;53.020;6.598;2023-05-10T14:43:00;67.43;;;63.38;;
52186;SDS011;38161;53.020;6.598;2023-05-10T14:45:25;78.35;;;73.72;;
52186;SDS011;38161;53.020;6.598;2023-05-10T14:47:51;78.95;;;74.18;;
52186;SDS011;38161;53.020;6.598;2023-05-10T14:50:17;78.53;;;73.78;;
52186;SDS011;38161;53.020;6.598;2023-05-10T14:52:44;81.97;;;76.80;;
52186;SDS011;38161;53.020;6.598;2023-05-10T14:55:10;69.00;;;64.93;;
52186;SDS011;38161;53.020;6.598;2023-05-10T14:57:36;113.88;;;105.97;;
52186;SDS011;38161;53.020;6.598;2023-05-10T15:00:02;95.65;;;89.22;;
52186;SDS011;38161;53.020;6.598;2023-05-10T15:02:28;114.80;;;106.88;;
52186;SDS011;38161;53.020;6.598;2023-05-10T15:04:56;78.43;;;73.78;;
52186;SDS011;38161;53.020;6.598;2023-05-10T15:09:49;72.88;;;68.22;;
52186;SDS011;38161;53.020;6.598;2023-05-10T15:12:16;82.80;;;77.88;;
52186;SDS011;38161;53.020;6.598;2023-05-10T15:14:43;74.32;;;69.90;;
52186;SDS011;38161;53.020;6.598;2023-05-10T15:17:09;81.55;;;76.75;;
52186;SDS011;38161;53.020;6.598;2023-05-10T15:19:35;81.22;;;76.43;;
52186;SDS011;38161;53.020;6.598;2023-05-10T15:22:01;80.95;;;76.25;;
52186;SDS011;38161;53.020;6.598;2023-05-10T15:26:54;61.15;;;57.40;;
52186;SDS011;38161;53.020;6.598;2023-05-10T15:29:20;90.78;;;85.47;;
52186;SDS011;38161;53.020;6.598;2023-05-10T15:31:49;80.97;;;76.35;;